Time;durP1;ratioP1;P1;durP2;ratioP2;P2;SDS_P1;SDS_P2;PMS_P1;PMS_P2;Temp;Humidity;BMP_temperature;BMP_pressure;BME280_temperature;BME280_humidity;BME280_pressure;Samples;Min_cycle;Max_cycle;Signal;HPM_P1;HPM_P2
2022/03/06 00:00:04;;;;;;;49.40;24.50;;;;;;;0.53;67.08;101044.17;52926;1273;1017146;-59
2022/03/06 00:02:56;;;;;;;59.00;24.30;;;;;;;0.53;66.59;101047.32;52833;1273;1016478;-62
2022/03/06 00:05:28;;;;;;;68.80;29.50;;;;;;;0.51;67.02;101046.06;52914;1273;1015849;-60
2022/03/06 00:08:00;;;;;;;66.20;30.70;;;;;;;0.51;66.79;101047.95;52536;1273;1518158;-60
2022/03/06 00:10:31;;;;;;;69.80;31.10;;;;;;;0.53;67.09;101047.15;52916;1273;1016143;-58
2022/03/06 00:13:03;;;;;;;59.60;28.00;;;;;;;0.55;67.06;101046.46;52989;1273;1016825;-60
2022/03/06 00:15:35;;;;;;;61.70;28.00;;;;;;;0.53;67.12;101048.26;52952;1273;1019155;-60
2022/03/06 00:18:07;;;;;;;50.70;25.20;;;;;;;0.54;67.14;101050.70;52821;1273;1016605;-57
2022/03/06 00:20:41;;;;;;;51.20;21.90;;;;;;;0.53;66.74;101045.91;52919;1273;1017424;-61
2022/03/06 00:23:13;;;;;;;50.70;20.40;;;;;;;0.51;66.74;101044.11;52796;1273;1016554;-61
2022/03/06 00:25:45;;;;;;;51.80;23.20;;;;;;;0.52;66.59;101047.00;52880;1273;1016337;-56
2022/03/06 00:28:16;;;;;;;49.50;20.60;;;;;;;0.51;66.81;101040.41;52896;1273;1016199;-57
2022/03/06 00:30:49;;;;;;;46.30;22.00;;;;;;;0.53;66.85;101042.45;52987;1273;1015990;-60
2022/03/06 00:33:20;;;;;;;49.10;19.70;;;;;;;0.51;66.96;101037.04;52865;1273;1016139;-57
2022/03/06 00:35:51;;;;;;;51.50;22.20;;;;;;;0.48;67.04;101035.86;52880;1273;1016629;-59
2022/03/06 00:38:22;;;;;;;46.80;20.80;;;;;;;0.49;67.36;101033.50;52838;1273;1016600;-60
2022/03/06 00:40:54;;;;;;;45.80;20.10;;;;;;;0.50;67.36;101033.89;52848;1273;1019177;-59
2022/03/06 00:43:26;;;;;;;48.10;22.00;;;;;;;0.49;67.21;101034.27;52939;1273;1015812;-59
2022/03/06 00:45:57;;;;;;;58.30;25.60;;;;;;;0.47;67.19;101035.55;52848;1273;1016713;-59
2022/03/06 00:48:29;;;;;;;52.70;25.10;;;;;;;0.44;66.90;101037.34;52818;1273;1016586;-58
2022/03/06 00:51:01;;;;;;;53.80;24.50;;;;;;;0.42;66.97;101037.66;52800;1273;1015967;-59
2022/03/06 00:53:32;;;;;;;46.40;21.70;;;;;;;0.45;67.22;101036.01;52870;1273;1016516;-60
2022/03/06 00:56:04;;;;;;;50.80;22.30;;;;;;;0.47;67.22;101037.19;52865;1273;1018482;-60
2022/03/06 00:58:37;;;;;;;48.70;23.10;;;;;;;0.45;67.04;101034.67;52847;1273;1016682;-61
2022/03/06 01:01:09;;;;;;;53.80;23.50;;;;;;;0.45;67.12;101037.82;52865;1273;1020388;-61
2022/03/06 01:03:40;;;;;;;48.90;21.40;;;;;;;0.46;67.11;101035.85;52883;1273;1016468;-62
2022/03/06 01:06:12;;;;;;;58.40;21.60;;;;;;;0.47;67.34;101036.65;52884;1273;1016472;-59
2022/03/06 01:08:44;;;;;;;50.50;22.20;;;;;;;0.47;67.38;101032.25;52885;1273;1016473;-62
2022/03/06 01:11:15;;;;;;;51.60;24.20;;;;;;;0.48;67.43;101028.86;52900;1273;1016655;-59
2022/03/06 01:13:47;;;;;;;73.30;32.10;;;;;;;0.49;67.29;101030.75;52946;1273;1016055;-61
2022/03/06 01:16:19;;;;;;;71.80;33.80;;;;;;;0.48;67.07;101028.56;52830;1273;1016280;-60
2022/03/06 01:18:50;;;;;;;75.90;32.40;;;;;;;0.45;67.11;101028.55;52886;1273;1017009;-59
2022/03/06 01:21:22;;;;;;;64.90;29.40;;;;;;;0.43;67.20;101030.36;52850;1273;1016576;-59
2022/03/06 01:23:54;;;;;;;61.50;27.60;;;;;;;0.42;67.08;101026.82;52745;1273;1017668;-60
2022/03/06 01:26:25;;;;;;;64.60;29.90;;;;;;;0.43;67.35;101025.57;52850;1273;1016720;-59
2022/03/06 01:28:57;;;;;;;70.30;31.30;;;;;;;0.45;67.43;101028.56;52951;1272;1016260;-60
2022/03/06 01:31:28;;;;;;;68.80;30.50;;;;;;;0.44;67.57;101025.17;52807;1273;1016798;-58
2022/03/06 01:34:02;;;;;;;66.30;29.30;;;;;;;0.44;67.14;101030.35;52880;1273;1016671;-59
2022/03/06 01:36:35;;;;;;;56.40;26.00;;;;;;;0.42;67.30;101028.70;52964;1273;1016682;-58
2022/03/06 01:39:07;;;;;;;59.60;26.80;;;;;;;0.41;67.41;101024.39;52766;1273;1016642;-58
2022/03/06 01:41:38;;;;;;;65.00;30.10;;;;;;;0.40;67.50;101025.02;52857;1273;1020021;-57
2022/03/06 01:44:14;;;;;;;67.20;32.00;;;;;;;0.40;67.54;101025.48;52905;1273;1016261;-60
2022/03/06 01:46:48;;;;;;;79.30;32.90;;;;;;;0.39;67.56;101022.52;52946;1273;1017458;-59
2022/03/06 01:49:20;;;;;;;65.80;28.00;;;;;;;0.37;67.37;101022.83;52888;1273;1016444;-60
2022/03/06 01:51:52;;;;;;;64.90;26.90;;;;;;;0.35;67.31;101022.02;52926;1273;1016510;-60
2022/03/06 01:54:24;;;;;;;59.50;26.70;;;;;;;0.33;67.22;101021.56;53078;1273;1015918;-60
2022/03/06 01:56:56;;;;;;;60.00;27.60;;;;;;;0.34;67.25;101019.36;52839;1273;1020196;-60
2022/03/06 01:59:27;;;;;;;57.10;27.20;;;;;;;0.34;67.34;101022.50;52723;1273;1016549;-61
2022/03/06 02:01:58;;;;;;;56.30;25.70;;;;;;;0.35;67.56;101023.61;52678;1273;1016613;-61
2022/03/06 02:04:30;;;;;;;54.60;24.10;;;;;;;0.37;67.44;101020.08;52785;1273;1016308;-60
2022/03/06 02:07:02;;;;;;;52.50;22.10;;;;;;;0.39;67.60;101021.17;53193;1273;1016341;-61
2022/03/06 02:09:33;;;;;;;56.00;22.20;;;;;;;0.40;67.36;101024.32;52866;1273;1015815;-60
2022/03/06 02:12:25;;;;;;;48.20;20.00;;;;;;;0.41;67.21;101022.59;52864;1273;1016587;-60
2022/03/06 02:14:58;;;;;;;51.50;21.00;;;;;;;0.40;67.16;101025.02;52941;1273;1016467;-61
2022/03/06 02:17:30;;;;;;;46.50;19.80;;;;;;;0.40;67.10;101023.45;52936;1273;1016306;-58
2022/03/06 02:20:04;;;;;;;49.30;21.90;;;;;;;0.40;67.29;101024.32;53011;1261;1015648;-74
2022/03/06 02:22:38;;;;;;;54.70;25.00;;;;;;;0.33;67.59;101024.85;52963;1273;1019152;-75
2022/03/06 02:25:12;;;;;;;58.60;26.90;;;;;;;0.24;67.72;101026.80;52947;1273;1016533;-75
2022/03/06 02:27:47;;;;;;;55.30;26.90;;;;;;;0.16;67.86;101022.71;52940;1273;1018225;-76
2022/03/06 02:30:20;;;;;;;51.80;25.00;;;;;;;0.11;67.80;101026.40;53004;1273;1016215;-77
2022/03/06 02:32:54;;;;;;;54.80;25.40;;;;;;;0.05;67.94;101028.89;52954;1273;1016630;-77
2022/03/06 02:35:26;;;;;;;54.60;27.00;;;;;;;0.03;68.01;101023.55;52853;1273;1015830;-76
2022/03/06 02:37:57;;;;;;;58.50;24.50;;;;;;;0.05;68.17;101021.12;52919;1273;1016644;-75
2022/03/06 02:40:29;;;;;;;64.20;26.80;;;;;;;0.07;68.34;101019.95;52957;1273;1016398;-74
2022/03/06 02:43:00;;;;;;;59.70;29.60;;;;;;;0.08;68.41;101019.02;52934;1273;1016434;-75
2022/03/06 02:45:31;;;;;;;61.90;28.30;;;;;;;0.10;68.26;101022.46;52965;1273;1016510;-76
2022/03/06 02:48:04;;;;;;;59.00;25.40;;;;;;;0.13;68.29;101018.15;53006;1273;1016748;-75
2022/03/06 02:50:38;;;;;;;50.00;23.20;;;;;;;0.14;68.12;101015.41;52905;1273;1016498;-76
2022/03/06 02:53:11;;;;;;;56.10;25.70;;;;;;;0.17;68.35;101012.12;52969;1273;1016302;-75
2022/03/06 02:55:42;;;;;;;61.80;26.20;;;;;;;0.20;68.48;101012.45;53039;1273;1015927;-75
2022/03/06 02:58:14;;;;;;;63.40;27.50;;;;;;;0.21;68.50;101011.27;52834;1273;1018152;-77
2022/03/06 03:00:46;;;;;;;64.10;26.50;;;;;;;0.19;68.33;101016.29;52912;1273;1016238;-77
2022/03/06 03:03:17;;;;;;;55.10;25.50;;;;;;;0.14;68.43;101014.80;52881;1273;1016447;-77
2022/03/06 03:05:48;;;;;;;57.10;24.80;;;;;;;0.09;68.21;101013.91;53001;1273;1019078;-74
2022/03/06 03:08:21;;;;;;;61.80;25.60;;;;;;;0.03;68.07;101014.05;52943;1273;1016265;-76
2022/03/06 03:10:53;;;;;;;54.70;26.80;;;;;;;-0.01;68.18;101017.81;52838;1273;1016295;-75
2022/03/06 03:13:24;;;;;;;53.70;25.10;;;;;;;-0.01;68.35;101015.39;52900;1271;1016509;-76
2022/03/06 03:15:56;;;;;;;53.70;25.20;;;;;;;0.03;68.44;101014.15;52958;1273;1016434;-75
2022/03/06 03:18:29;;;;;;;56.20;24.00;;;;;;;0.07;68.55;101013.21;53008;1273;1018723;-76
2022/03/06 03:21:00;;;;;;;58.40;26.80;;;;;;;0.10;68.74;101012.11;52835;1274;1016617;-76
2022/03/06 03:23:31;;;;;;;75.10;34.20;;;;;;;0.11;68.68;101011.56;52833;1275;1016612;-76
2022/03/06 03:26:02;;;;;;;61.10;28.60;;;;;;;0.09;68.61;101015.01;52840;1274;1016190;-75
2022/03/06 03:28:33;;;;;;;58.10;25.80;;;;;;;0.11;68.98;101012.90;52870;1274;1016350;-75
2022/03/06 03:31:04;;;;;;;58.80;25.90;;;;;;;0.14;68.76;101012.51;52841;1274;1015883;-76
2022/03/06 03:33:36;;;;;;;58.70;25.00;;;;;;;0.13;68.68;101011.64;52830;1276;1016230;-76
2022/03/06 03:36:08;;;;;;;53.30;24.60;;;;;;;0.09;68.69;101015.88;52749;1274;1016013;-75
2022/03/06 03:38:40;;;;;;;61.20;27.70;;;;;;;0.06;68.72;101017.98;52736;1276;1016305;-77
2022/03/06 03:41:12;;;;;;;64.30;28.20;;;;;;;0.04;68.96;101015.02;52804;1274;1016705;-77
2022/03/06 03:43:43;;;;;;;64.10;28.40;;;;;;;0.05;69.02;101016.11;52771;1274;1016666;-75
2022/03/06 03:46:14;;;;;;;60.50;26.30;;;;;;;0.06;69.17;101017.60;52872;1276;1016694;-77
2022/03/06 03:48:46;;;;;;;64.00;26.70;;;;;;;0.07;69.14;101016.98;52791;1274;1016376;-77
2022/03/06 03:51:18;;;;;;;60.40;28.00;;;;;;;0.08;69.06;101021.68;52864;1276;1017133;-76
2022/03/06 03:53:49;;;;;;;70.90;27.50;;;;;;;0.11;69.21;101021.60;52851;1274;1016253;-75
2022/03/06 03:56:22;;;;;;;59.70;28.10;;;;;;;0.13;69.24;101020.27;52900;1274;1016422;-76
2022/03/06 03:58:54;;;;;;;63.60;27.20;;;;;;;0.12;68.96;101018.45;52857;1274;1019622;-76
2022/03/06 04:01:25;;;;;;;59.20;25.40;;;;;;;0.10;68.96;101024.20;52846;1273;1016720;-78
2022/03/06 04:03:56;;;;;;;59.20;26.10;;;;;;;0.08;68.96;101024.11;52887;1274;1018037;-76
2022/03/06 04:06:27;;;;;;;61.10;27.60;;;;;;;0.08;69.18;101025.29;52784;1275;1016608;-76
2022/03/06 04:08:58;;;;;;;59.60;27.80;;;;;;;0.08;69.23;101024.66;52924;1274;1017002;-75
2022/03/06 04:11:30;;;;;;;59.00;27.20;;;;;;;0.06;69.29;101022.15;52897;1276;1016697;-75
2022/03/06 04:14:01;;;;;;;61.20;26.90;;;;;;;0.07;69.37;101025.52;52843;1275;1016553;-76
2022/03/06 04:16:32;;;;;;;61.20;26.60;;;;;;;0.08;69.31;101022.48;52851;1274;1016684;-76
2022/03/06 04:19:04;;;;;;;57.90;24.70;;;;;;;0.07;69.13;101028.81;52816;1273;1017222;-77
2022/03/06 04:21:35;;;;;;;55.60;26.20;;;;;;;0.04;69.31;101029.13;52979;1273;1016494;-75
2022/03/06 04:24:09;;;;;;;55.40;25.80;;;;;;;0.03;69.35;101026.30;52934;1273;1019845;-74
2022/03/06 04:26:40;;;;;;;56.40;25.40;;;;;;;0.06;69.41;101027.71;52899;1273;1015988;-76
2022/03/06 04:29:12;;;;;;;60.00;24.30;;;;;;;0.08;69.36;101029.36;52941;1273;1017581;-76
2022/03/06 04:31:43;;;;;;;55.30;23.40;;;;;;;0.11;69.51;101030.30;52855;1273;1017252;-74
2022/03/06 04:34:14;;;;;;;52.40;24.10;;;;;;;0.14;69.33;101030.48;52962;1273;1016297;-77
2022/03/06 04:36:48;;;;;;;49.80;23.40;;;;;;;0.13;69.18;101029.38;52799;1273;1016395;-75
2022/03/06 04:39:19;;;;;;;45.30;22.40;;;;;;;0.07;69.05;101024.66;52894;1273;1015879;-75
2022/03/06 04:41:50;;;;;;;55.80;26.00;;;;;;;0.06;69.29;101023.64;52984;1273;1016490;-75
2022/03/06 04:44:23;;;;;;;55.50;24.00;;;;;;;0.06;69.28;101023.48;52946;1273;1018016;-76
2022/03/06 04:46:54;;;;;;;51.00;23.40;;;;;;;0.04;69.37;101020.33;52959;1273;1016541;-76
2022/03/06 04:49:26;;;;;;;53.70;24.40;;;;;;;0.01;69.53;101015.94;52851;1273;1016649;-76
2022/03/06 04:51:57;;;;;;;50.50;23.60;;;;;;;-0.04;69.53;101018.36;52973;1273;1016675;-77
2022/03/06 04:54:29;;;;;;;54.80;24.30;;;;;;;-0.07;69.59;101019.13;52997;1273;1020351;-76
2022/03/06 04:57:00;;;;;;;54.20;24.30;;;;;;;-0.08;69.67;101020.62;52956;1272;1015939;-76
2022/03/06 04:59:31;;;;;;;52.60;23.20;;;;;;;-0.09;69.82;101022.66;52950;1273;1016409;-76
2022/03/06 05:02:03;;;;;;;50.80;23.40;;;;;;;-0.12;69.95;101020.69;52969;1273;1016603;-76
2022/03/06 05:04:36;;;;;;;49.40;22.40;;;;;;;-0.12;69.92;101018.89;52931;1273;1015808;-74
2022/03/06 05:07:07;;;;;;;51.60;24.20;;;;;;;-0.09;70.10;101021.88;52858;1273;1016511;-75
2022/03/06 05:09:39;;;;;;;53.90;23.70;;;;;;;-0.07;70.09;101025.41;52857;1273;1016716;-74
2022/03/06 05:12:11;;;;;;;53.00;22.00;;;;;;;-0.06;70.09;101022.80;53024;1273;1016209;-76
2022/03/06 05:14:43;;;;;;;54.20;23.40;;;;;;;-0.04;70.24;101020.71;52981;1273;1016081;-76
2022/03/06 05:17:15;;;;;;;47.10;21.40;;;;;;;-0.01;70.40;101020.08;53001;1273;1016387;-76
2022/03/06 05:19:47;;;;;;;51.60;23.10;;;;;;;0.01;70.28;101018.52;52918;1273;1016081;-77
2022/03/06 05:22:18;;;;;;;47.30;20.90;;;;;;;0.02;70.18;101020.56;52937;1273;1016344;-76
2022/03/06 05:24:49;;;;;;;57.20;23.40;;;;;;;0.05;70.41;101022.06;52969;1273;1018213;-76
2022/03/06 05:27:20;;;;;;;46.50;21.10;;;;;;;0.07;70.48;101023.24;52931;1273;1018207;-76
2022/03/06 05:29:52;;;;;;;47.70;21.50;;;;;;;0.09;70.50;101029.29;52998;1273;1016530;-75
2022/03/06 05:32:23;;;;;;;48.20;23.90;;;;;;;0.09;70.55;101032.27;52933;1273;1016502;-75
2022/03/06 05:34:56;;;;;;;54.60;24.40;;;;;;;0.11;70.47;101029.84;52887;1273;1017040;-76
2022/03/06 05:37:27;;;;;;;52.00;24.30;;;;;;;0.10;70.47;101033.77;52924;1273;1016642;-76
2022/03/06 05:39:58;;;;;;;55.70;23.90;;;;;;;0.09;70.43;101034.16;52997;1273;1016789;-75
2022/03/06 05:42:30;;;;;;;55.10;23.90;;;;;;;0.10;70.54;101034.79;52877;1273;1016641;-75
2022/03/06 05:45:01;;;;;;;48.90;22.70;;;;;;;0.10;70.30;101040.35;52816;1272;1016948;-75
2022/03/06 05:47:34;;;;;;;47.50;21.60;;;;;;;0.10;70.18;101038.39;53026;1273;1015778;-75
2022/03/06 05:50:10;;;;;;;48.10;21.70;;;;;;;0.12;70.37;101039.41;52852;1273;1016115;-76
2022/03/06 05:52:42;;;;;;;52.30;21.70;;;;;;;0.13;70.49;101038.46;52937;1273;1016367;-76
2022/03/06 05:55:14;;;;;;;46.00;20.90;;;;;;;0.13;70.48;101042.87;52881;1273;1016322;-76
2022/03/06 05:57:46;;;;;;;54.60;23.30;;;;;;;0.16;70.40;101044.29;53036;1273;1016265;-77
2022/03/06 06:00:18;;;;;;;47.00;20.30;;;;;;;0.16;70.54;101041.70;52954;1273;1016192;-76
2022/03/06 06:02:49;;;;;;;51.90;20.40;;;;;;;0.16;70.44;101042.64;52974;1273;1016370;-75
2022/03/06 06:05:20;;;;;;;48.20;20.00;;;;;;;0.17;70.50;101042.88;53047;1271;1016563;-75
2022/03/06 06:07:53;;;;;;;50.50;20.00;;;;;;;0.17;70.44;101042.41;52966;1273;1016573;-75
2022/03/06 06:10:25;;;;;;;52.40;21.40;;;;;;;0.16;70.15;101044.67;52996;1273;1016371;-77
2022/03/06 06:12:56;;;;;;;45.50;22.20;;;;;;;0.18;70.15;101043.75;52922;1271;1016234;-75
2022/03/06 06:15:28;;;;;;;45.00;20.20;;;;;;;0.18;70.17;101044.92;52905;1273;1016726;-76
2022/03/06 06:17:59;;;;;;;45.90;20.00;;;;;;;0.14;69.98;101042.33;52961;1273;1016382;-75
2022/03/06 06:20:31;;;;;;;49.40;21.10;;;;;;;0.13;70.10;101046.63;52964;1271;1016510;-75
2022/03/06 06:23:03;;;;;;;47.20;22.20;;;;;;;0.13;70.18;101046.88;52980;1273;1016715;-75
2022/03/06 06:25:34;;;;;;;47.20;21.30;;;;;;;0.15;70.25;101048.83;52987;1273;1016409;-75
2022/03/06 06:28:06;;;;;;;45.80;20.30;;;;;;;0.13;70.05;101050.02;52987;1272;1016603;-76
2022/03/06 06:30:37;;;;;;;52.00;22.20;;;;;;;0.15;70.10;101048.68;52991;1273;1017909;-76
2022/03/06 06:33:09;;;;;;;45.20;20.80;;;;;;;0.17;70.10;101045.63;52964;1273;1016266;-73
2022/03/06 06:35:40;;;;;;;45.20;20.40;;;;;;;0.19;69.97;101044.30;52990;1273;1016680;-73
2022/03/06 06:38:11;;;;;;;47.60;21.00;;;;;;;0.22;69.87;101045.64;52957;1273;1016385;-73
2022/03/06 06:40:44;;;;;;;44.20;20.70;;;;;;;0.26;70.05;101046.27;53011;1273;1016319;-73
2022/03/06 06:43:15;;;;;;;47.40;20.90;;;;;;;0.30;70.02;101043.05;52928;1273;1016281;-73
2022/03/06 06:45:46;;;;;;;50.50;21.90;;;;;;;0.34;69.83;101042.35;52874;1272;1016747;-73
2022/03/06 06:48:18;;;;;;;46.90;20.60;;;;;;;0.33;69.72;101042.58;52995;1273;1016395;-74
2022/03/06 06:50:49;;;;;;;47.40;21.30;;;;;;;0.33;69.67;101040.30;52969;1273;1017322;-73
2022/03/06 06:53:21;;;;;;;51.20;21.20;;;;;;;0.34;69.90;101042.59;53037;1273;1018522;-74
2022/03/06 06:55:52;;;;;;;50.60;21.90;;;;;;;0.36;69.96;101043.69;53085;1273;1016398;-72
2022/03/06 06:58:24;;;;;;;48.40;22.00;;;;;;;0.37;70.07;101041.89;53077;1273;1016226;-72
2022/03/06 07:00:55;;;;;;;48.20;22.00;;;;;;;0.39;70.09;101044.02;52973;1273;1016378;-73
2022/03/06 07:03:27;;;;;;;48.60;21.80;;;;;;;0.41;70.10;101040.31;53032;1273;1016440;-73
2022/03/06 07:05:58;;;;;;;46.70;21.70;;;;;;;0.45;70.08;101044.49;53024;1273;1015947;-74
2022/03/06 07:08:30;;;;;;;49.40;22.20;;;;;;;0.44;69.98;101042.61;52942;1273;1016192;-73
2022/03/06 07:11:01;;;;;;;56.30;22.60;;;;;;;0.44;70.12;101043.78;52916;1273;1016879;-75
2022/03/06 07:13:33;;;;;;;53.70;22.00;;;;;;;0.46;69.99;101046.77;53034;1273;1016388;-74
2022/03/06 07:16:05;;;;;;;50.60;22.50;;;;;;;0.50;70.08;101046.61;52959;1274;1016521;-74
2022/03/06 07:18:37;;;;;;;52.60;23.00;;;;;;;0.53;69.53;101047.47;53009;1274;1016434;-73
2022/03/06 07:21:08;;;;;;;63.30;30.10;;;;;;;0.54;69.37;101047.24;52975;1273;1016459;-72
2022/03/06 07:23:40;;;;;;;85.20;40.90;;;;;;;0.59;69.76;101048.66;52987;1273;1018990;-74
2022/03/06 07:26:11;;;;;;;103.90;52.00;;;;;;;0.65;69.47;101047.65;53022;1273;1016267;-74
2022/03/06 07:28:42;;;;;;;66.70;31.50;;;;;;;0.70;69.56;101046.54;53002;1273;1015962;-72
2022/03/06 07:31:14;;;;;;;48.40;22.70;;;;;;;0.76;69.44;101048.97;52968;1273;1019197;-73
2022/03/06 07:33:45;;;;;;;61.80;30.20;;;;;;;0.82;68.99;101050.61;53029;1273;1016613;-73
2022/03/06 07:36:16;;;;;;;81.90;36.80;;;;;;;0.85;68.98;101049.91;52891;1273;1018007;-74
2022/03/06 07:38:47;;;;;;;50.60;21.60;;;;;;;0.88;68.76;101048.73;53045;1273;1016425;-74
2022/03/06 07:41:19;;;;;;;45.00;19.10;;;;;;;0.89;68.15;101044.88;52891;1273;1016590;-74
2022/03/06 07:43:50;;;;;;;44.90;20.00;;;;;;;0.91;68.50;101047.48;52916;1273;1016679;-73
2022/03/06 07:46:22;;;;;;;44.10;19.50;;;;;;;0.93;68.22;101049.52;53009;1272;1016426;-75
2022/03/06 07:48:53;;;;;;;45.60;17.90;;;;;;;0.96;68.10;101050.38;52974;1273;1015753;-75
2022/03/06 07:51:25;;;;;;;52.80;22.20;;;;;;;1.00;68.11;101048.73;52955;1273;1016245;-75
2022/03/06 07:53:56;;;;;;;49.80;23.70;;;;;;;1.07;68.35;101051.30;52879;1273;1016490;-75
2022/03/06 07:56:27;;;;;;;44.30;19.30;;;;;;;1.13;67.97;101050.27;52950;1273;1019893;-75
2022/03/06 07:58:58;;;;;;;45.10;21.20;;;;;;;1.20;67.66;101047.04;52921;1273;1016348;-74
2022/03/06 08:01:30;;;;;;;40.40;17.60;;;;;;;1.23;67.02;101047.98;52948;1273;1015977;-74
2022/03/06 08:04:01;;;;;;;46.10;19.40;;;;;;;1.26;66.84;101046.80;52871;1271;1016077;-73
2022/03/06 08:06:32;;;;;;;44.90;21.10;;;;;;;1.31;66.94;101046.00;52995;1273;1016512;-75
2022/03/06 08:09:04;;;;;;;54.60;23.70;;;;;;;1.38;67.24;101044.02;52942;1272;1016029;-73
2022/03/06 08:11:36;;;;;;;46.80;20.90;;;;;;;1.46;66.99;101046.11;52975;1273;1016385;-74
2022/03/06 08:14:08;;;;;;;37.10;16.20;;;;;;;1.53;67.08;101046.24;52834;1273;1016323;-73
2022/03/06 08:16:41;;;;;;;41.80;18.40;;;;;;;1.58;66.97;101040.09;52880;1273;1016835;-74
2022/03/06 08:19:12;;;;;;;45.50;20.80;;;;;;;1.63;66.62;101044.09;52938;1273;1017742;-74
2022/03/06 08:21:44;;;;;;;49.50;20.60;;;;;;;1.69;66.57;101045.09;52897;1273;1017297;-74
2022/03/06 08:24:16;;;;;;;39.10;18.80;;;;;;;1.75;66.51;101045.62;52858;1273;1016791;-75
2022/03/06 08:26:48;;;;;;;45.80;22.40;;;;;;;1.81;66.02;101042.98;52858;1273;1016052;-73
2022/03/06 08:29:21;;;;;;;45.10;20.70;;;;;;;1.87;65.81;101039.12;52944;1273;1016001;-74
2022/03/06 08:31:56;;;;;;;47.40;23.10;;;;;;;1.90;65.64;101036.66;52892;1273;1016761;-74
2022/03/06 08:34:27;;;;;;;52.90;27.80;;;;;;;1.96;65.56;101037.34;52899;1273;1017500;-76
2022/03/06 08:36:58;;;;;;;45.30;22.40;;;;;;;2.02;65.61;101038.41;53011;1273;1016806;-77
2022/03/06 08:39:30;;;;;;;49.10;24.90;;;;;;;2.08;64.77;101040.88;52882;1273;1016398;-75
2022/03/06 08:42:02;;;;;;;47.40;23.90;;;;;;;2.10;64.64;101041.98;52912;1273;1017969;-74
2022/03/06 08:44:34;;;;;;;33.80;14.60;;;;;;;2.14;64.69;101039.98;52887;1273;1020207;-75
2022/03/06 08:47:06;;;;;;;33.70;14.80;;;;;;;2.16;64.40;101041.14;52895;1273;1016279;-75
2022/03/06 08:49:39;;;;;;;30.80;14.40;;;;;;;2.19;64.59;101037.43;52995;1273;1016379;-74
2022/03/06 08:52:11;;;;;;;30.50;13.80;;;;;;;2.24;64.68;101036.54;52930;1273;1016763;-75
2022/03/06 08:54:43;;;;;;;30.20;12.90;;;;;;;2.30;64.46;101035.40;52968;1273;1016203;-74
2022/03/06 08:57:15;;;;;;;27.60;11.80;;;;;;;2.35;63.55;101032.30;52875;1273;1018479;-74
2022/03/06 08:59:48;;;;;;;28.80;11.40;;;;;;;2.35;63.33;101032.92;52927;1273;1016673;-74
2022/03/06 09:02:19;;;;;;;30.10;12.70;;;;;;;2.38;62.74;101035.02;53063;1273;1015976;-74
2022/03/06 09:04:50;;;;;;;27.50;11.80;;;;;;;2.40;63.01;101042.18;52932;1273;1016039;-74
2022/03/06 09:07:21;;;;;;;29.00;11.40;;;;;;;2.46;63.10;101041.59;52921;1273;1016428;-74
2022/03/06 09:09:53;;;;;;;28.90;11.40;;;;;;;2.52;63.12;101038.00;53002;1273;1016700;-74
2022/03/06 09:12:26;;;;;;;27.50;10.80;;;;;;;2.56;62.79;101040.41;52957;1273;1016227;-73
2022/03/06 09:14:59;;;;;;;26.50;10.50;;;;;;;2.57;62.16;101039.06;53032;1273;1015881;-73
2022/03/06 09:17:30;;;;;;;26.30;11.70;;;;;;;2.57;62.04;101039.14;53029;1273;1016031;-74
2022/03/06 09:20:03;;;;;;;25.10;10.20;;;;;;;2.59;61.88;101036.92;52897;1273;1018992;-73
2022/03/06 09:22:34;;;;;;;24.00;10.20;;;;;;;2.64;62.34;101042.09;52833;1273;1018443;-74
2022/03/06 09:25:07;;;;;;;30.80;12.00;;;;;;;2.68;62.06;101039.52;52889;1273;1016954;-75
2022/03/06 09:27:38;;;;;;;37.30;16.50;;;;;;;2.72;62.03;101036.90;52844;1273;1016534;-73
2022/03/06 09:30:12;;;;;;;32.80;13.20;;;;;;;2.75;61.59;101039.40;52852;1273;1016618;-73
2022/03/06 09:32:44;;;;;;;27.70;11.50;;;;;;;2.75;60.99;101037.90;53051;1271;1018088;-73
2022/03/06 09:35:16;;;;;;;29.00;12.90;;;;;;;2.76;61.62;101036.88;52883;1273;1016644;-74
2022/03/06 09:37:47;;;;;;;24.20;10.80;;;;;;;2.80;61.14;101037.84;52996;1272;1016184;-73
2022/03/06 09:40:19;;;;;;;25.70;10.60;;;;;;;2.80;60.92;101036.19;52935;1273;1016780;-73
2022/03/06 09:42:50;;;;;;;26.00;10.40;;;;;;;2.80;59.74;101037.06;52968;1273;1016506;-74
2022/03/06 09:45:24;;;;;;;27.30;11.00;;;;;;;2.74;59.85;101043.02;52986;1273;1016505;-74
2022/03/06 09:47:58;;;;;;;34.60;14.70;;;;;;;2.74;60.69;101042.72;53184;1271;1016320;-74
2022/03/06 09:50:29;;;;;;;27.80;10.70;;;;;;;2.77;60.53;101046.70;53023;1273;1015866;-73
2022/03/06 09:53:00;;;;;;;28.30;9.80;;;;;;;2.80;59.80;101051.33;52979;1273;1016468;-74
2022/03/06 09:55:31;;;;;;;22.50;8.80;;;;;;;2.79;59.01;101047.01;53035;1273;1016500;-74
2022/03/06 09:58:03;;;;;;;20.80;8.20;;;;;;;2.76;58.97;101047.34;52939;1273;1016415;-73
2022/03/06 10:00:35;;;;;;;18.60;7.60;;;;;;;2.74;58.96;101044.67;52849;1273;1016202;-73
2022/03/06 10:03:08;;;;;;;21.00;8.00;;;;;;;2.74;58.80;101047.11;53089;1273;1016217;-74
2022/03/06 10:05:41;;;;;;;21.10;8.10;;;;;;;2.71;58.34;101048.41;53115;1273;1016333;-74
2022/03/06 10:08:24;;;;;;;21.20;8.30;;;;;;;2.70;58.43;101048.42;52926;1273;1019014;-74
2022/03/06 10:10:58;;;;;;;23.10;9.20;;;;;;;2.68;58.29;101048.59;52937;1271;1016533;-74
2022/03/06 10:13:35;;;;;;;25.60;10.70;;;;;;;2.68;57.65;101052.61;52975;1273;1016078;-74
2022/03/06 10:16:09;;;;;;;25.70;9.90;;;;;;;2.65;57.85;101052.55;53022;1272;1016093;-75
2022/03/06 10:18:43;;;;;;;23.20;10.20;;;;;;;2.65;58.15;101050.65;53012;1273;1016172;-75
2022/03/06 10:21:24;;;;;;;22.20;9.60;;;;;;;2.70;58.23;101052.35;53160;1273;1016709;-74
2022/03/06 10:23:58;;;;;;;27.00;11.20;;;;;;;2.75;58.03;101054.52;52887;1273;1016027;-72
2022/03/06 10:26:32;;;;;;;25.10;9.30;;;;;;;2.75;57.20;101049.23;52925;1273;1016516;-74
2022/03/06 10:29:05;;;;;;;25.90;9.90;;;;;;;2.71;57.06;101049.83;52868;1273;1016381;-74
2022/03/06 10:31:37;;;;;;;29.90;11.30;;;;;;;2.69;57.41;101053.15;53064;1273;1016369;-76
2022/03/06 10:34:12;;;;;;;26.40;9.80;;;;;;;2.69;57.64;101054.17;53059;1273;1016929;-74
2022/03/06 10:36:45;;;;;;;22.50;9.10;;;;;;;2.70;56.92;101052.82;53312;1273;1016552;-74
2022/03/06 10:39:19;;;;;;;27.70;11.50;;;;;;;2.70;57.40;101049.36;53237;1273;1016604;-73
2022/03/06 10:41:52;;;;;;;26.90;11.60;;;;;;;2.75;57.61;101045.94;52963;1273;1016200;-73
2022/03/06 10:44:42;;;;;;;23.00;8.10;;;;;;;2.81;57.92;101043.28;52832;1273;1016373;-74
2022/03/06 10:47:13;;;;;;;26.60;10.30;;;;;;;2.82;56.42;101040.67;52935;1272;1016971;-74
2022/03/06 10:50:02;;;;;;;24.90;9.60;;;;;;;2.79;56.61;101040.55;53010;1273;1015843;-73
2022/03/06 10:52:42;;;;;;;26.70;9.40;;;;;;;2.78;56.48;101035.42;53039;1273;1015992;-74
2022/03/06 10:55:14;;;;;;;31.50;11.60;;;;;;;2.78;56.56;101028.19;52907;1273;1016639;-74
2022/03/06 10:57:58;;;;;;;22.30;7.40;;;;;;;2.82;56.64;101031.62;52977;1273;1016393;-73
2022/03/06 11:00:29;;;;;;;25.80;8.60;;;;;;;2.82;55.82;101029.02;53072;1273;1015980;-74
2022/03/06 11:03:04;;;;;;;24.40;9.40;;;;;;;2.79;56.03;101025.82;52920;1273;1016583;-75
2022/03/06 11:05:38;;;;;;;23.30;8.50;;;;;;;2.83;56.11;101027.02;52933;1273;1020365;-74
2022/03/06 11:08:12;;;;;;;25.40;10.30;;;;;;;2.88;56.24;101022.81;52989;1271;1016273;-74
2022/03/06 11:10:44;;;;;;;22.50;9.20;;;;;;;2.93;55.88;101022.20;52984;1273;1016367;-74
2022/03/06 11:13:16;;;;;;;24.40;10.20;;;;;;;2.93;55.56;101020.80;52988;1273;1019857;-74
2022/03/06 11:15:49;;;;;;;27.40;11.00;;;;;;;2.94;55.71;101016.29;52864;1273;1016741;-77
2022/03/06 11:18:22;;;;;;;21.70;8.00;;;;;;;3.02;55.71;101015.27;52936;1273;1016714;-75
2022/03/06 11:20:55;;;;;;;22.10;8.40;;;;;;;3.03;54.62;101014.07;52957;1273;1016965;-75
2022/03/06 11:23:34;;;;;;;19.70;8.10;;;;;;;2.98;54.35;101011.85;52986;1273;1017263;-75